createdAt,value
2023-05-07T00:00:00.585Z,96.61
2023-05-07T00:01:00.669Z,96.61
2023-05-07T00:02:00.561Z,96.71
2023-05-07T00:03:00.696Z,96.71
2023-05-07T00:04:00.697Z,96.61
2023-05-07T00:05:00.712Z,96.61
2023-05-07T00:06:00.518Z,96.51
2023-05-07T00:07:00.492Z,96.51
2023-05-07T00:08:00.546Z,96.51
2023-05-07T00:09:00.486Z,96.51
2023-05-07T00:10:00.505Z,96.51
2023-05-07T00:11:00.464Z,96.51
2023-05-07T00:12:00.472Z,96.51
2023-05-07T00:13:00.583Z,96.51
2023-05-07T00:14:00.425Z,96.51
2023-05-07T00:15:00.450Z,96.51
2023-05-07T00:16:00.469Z,96.51
2023-05-07T00:17:00.458Z,96.51
2023-05-07T00:18:00.574Z,96.51
2023-05-07T00:19:00.368Z,96.51
2023-05-07T00:20:00.359Z,96.41
2023-05-07T00:21:00.378Z,96.41
2023-05-07T00:22:00.346Z,96.41
2023-05-07T00:23:00.332Z,96.41
2023-05-07T00:24:00.324Z,96.41
2023-05-07T00:25:00.305Z,96.41
2023-05-07T00:26:00.339Z,96.41
2023-05-07T00:27:00.284Z,96.41
2023-05-07T00:28:00.280Z,96.41
2023-05-07T00:29:00.263Z,96.41
2023-05-07T00:30:00.295Z,96.41
2023-05-07T00:31:00.241Z,96.41
2023-05-07T00:32:00.358Z,96.41
2023-05-07T00:33:00.249Z,96.41
2023-05-07T00:34:00.219Z,96.41
2023-05-07T00:35:00.200Z,96.41
2023-05-07T00:36:00.192Z,96.51
2023-05-07T00:37:00.191Z,96.51
2023-05-07T00:38:00.266Z,96.51
2023-05-07T00:39:00.167Z,96.51
2023-05-07T00:40:00.182Z,96.61
2023-05-07T00:41:00.145Z,96.51
2023-05-07T00:42:00.192Z,96.51
2023-05-07T00:43:00.135Z,96.55
2023-05-07T00:44:00.122Z,96.66
2023-05-07T00:45:00.114Z,96.75
2023-05-07T00:46:00.195Z,96.86
2023-05-07T00:47:00.137Z,96.86
2023-05-07T00:48:00.170Z,96.96
2023-05-07T00:49:00.088Z,96.96
2023-05-07T00:50:00.054Z,96.96
2023-05-07T00:51:00.034Z,97.06
2023-05-07T00:52:00.102Z,97.06
2023-05-07T00:53:00.006Z,97.16
2023-05-07T00:53:59.993Z,97.26
2023-05-07T00:54:59.978Z,97.26
2023-05-07T00:55:59.980Z,97.26
2023-05-07T00:56:59.982Z,97.26
2023-05-07T00:57:59.991Z,97.26
2023-05-07T00:58:59.973Z,97.36
2023-05-07T00:59:59.923Z,97.36
2023-05-07T01:00:59.959Z,97.36
2023-05-07T01:01:59.910Z,97.47
2023-05-07T01:02:59.957Z,97.56
2023-05-07T01:03:59.934Z,97.56
2023-05-07T01:04:59.870Z,97.67
2023-05-07T01:05:59.887Z,97.71
2023-05-07T01:06:59.845Z,97.81
2023-05-07T01:07:59.875Z,97.81
2023-05-07T01:08:59.819Z,97.92
2023-05-07T01:09:59.826Z,97.92
2023-05-07T01:10:59.802Z,98.02
2023-05-07T01:11:59.802Z,98.02
2023-05-07T01:12:59.930Z,98.12
2023-05-07T01:13:59.816Z,98.12
2023-05-07T01:14:59.761Z,98.12
2023-05-07T01:15:59.756Z,98.22
2023-05-07T01:16:59.916Z,98.12
2023-05-07T01:17:59.761Z,98.22
2023-05-07T01:18:59.738Z,98.22
2023-05-07T01:19:59.714Z,98.22
2023-05-07T01:20:59.721Z,98.22
2023-05-07T01:21:59.784Z,98.22
2023-05-07T01:22:59.831Z,98.22
2023-05-07T01:23:59.697Z,98.22
2023-05-07T01:24:59.653Z,98.22
2023-05-07T01:25:59.684Z,98.22
2023-05-07T01:26:59.637Z,98.22
2023-05-07T01:27:59.625Z,98.22
2023-05-07T01:28:59.615Z,98.22
2023-05-07T01:29:59.620Z,98.22
2023-05-07T01:30:59.623Z,98.22
2023-05-07T01:31:59.640Z,98.32
2023-05-07T01:32:59.648Z,98.32
2023-05-07T01:33:59.563Z,98.32
2023-05-07T01:34:59.564Z,98.32
2023-05-07T01:35:59.543Z,98.32
2023-05-07T01:36:59.519Z,98.43
2023-05-07T01:37:59.528Z,98.43
2023-05-07T01:38:59.508Z,98.43
2023-05-07T01:39:59.564Z,98.52
2023-05-07T01:40:59.517Z,98.52
2023-05-07T01:41:59.462Z,98.52
2023-05-07T01:42:59.495Z,98.52
2023-05-07T01:43:59.442Z,98.52
2023-05-07T01:44:59.659Z,98.63
2023-05-07T01:45:59.445Z,98.63
2023-05-07T01:46:59.408Z,98.63
2023-05-07T01:47:59.454Z,98.63
2023-05-07T01:48:59.382Z,98.63
2023-05-07T01:49:59.424Z,98.63
2023-05-07T01:50:59.361Z,98.63
2023-05-07T01:51:59.362Z,98.63
2023-05-07T01:52:59.339Z,98.63
2023-05-07T01:53:59.349Z,98.52
2023-05-07T01:54:59.326Z,98.52
2023-05-07T01:55:59.337Z,98.52
2023-05-07T01:56:59.306Z,98.52
2023-05-07T01:57:59.297Z,98.52
2023-05-07T01:58:59.276Z,98.52
2023-05-07T01:59:59.347Z,98.52
2023-05-07T02:00:59.255Z,98.52
2023-05-07T02:01:59.273Z,98.52
2023-05-07T02:02:59.423Z,98.52
2023-05-07T02:03:59.305Z,98.52
2023-05-07T02:04:59.215Z,98.52
2023-05-07T02:05:59.238Z,98.43
2023-05-07T02:06:59.196Z,98.52
2023-05-07T02:07:59.218Z,98.52
2023-05-07T02:08:59.172Z,98.43
2023-05-07T02:09:59.166Z,98.43
2023-05-07T02:10:59.181Z,98.52
2023-05-07T02:11:59.139Z,98.52
2023-05-07T02:12:59.151Z,98.52
2023-05-07T02:13:59.122Z,98.52
2023-05-07T02:14:59.117Z,98.63
2023-05-07T02:15:59.231Z,98.63
2023-05-07T02:16:59.085Z,98.63
2023-05-07T02:17:59.123Z,98.63
2023-05-07T02:18:59.078Z,98.63
2023-05-07T02:19:59.054Z,98.63
2023-05-07T02:20:59.042Z,98.63
2023-05-07T02:21:59.072Z,98.73
2023-05-07T02:22:59.033Z,98.73
2023-05-07T02:23:59.019Z,98.73
2023-05-07T02:24:59.030Z,98.73
2023-05-07T02:25:59.044Z,98.73
2023-05-07T02:26:58.970Z,98.83
2023-05-07T02:27:58.963Z,98.73
2023-05-07T02:28:59.047Z,98.83
2023-05-07T02:29:58.963Z,98.83
2023-05-07T02:30:58.967Z,98.73
2023-05-07T02:31:59.007Z,98.83
2023-05-07T02:32:58.949Z,98.83
2023-05-07T02:33:58.900Z,98.83
2023-05-07T02:34:58.885Z,98.83
2023-05-07T02:35:58.882Z,98.83
2023-05-07T02:36:58.891Z,98.83
2023-05-07T02:37:58.871Z,98.83
2023-05-07T02:38:58.844Z,98.73
2023-05-07T02:39:58.846Z,98.83
2023-05-07T02:40:58.824Z,98.83
2023-05-07T02:41:58.820Z,98.83
2023-05-07T02:42:58.845Z,98.83
2023-05-07T02:43:58.800Z,98.83
2023-05-07T02:44:58.783Z,98.83
2023-05-07T02:45:58.897Z,98.83
2023-05-07T02:46:58.762Z,98.93
2023-05-07T02:47:58.842Z,98.83
2023-05-07T02:48:58.774Z,98.83
2023-05-07T02:49:58.730Z,98.83
2023-05-07T02:50:58.733Z,98.83
2023-05-07T02:51:58.746Z,98.83
2023-05-07T02:52:58.697Z,98.83
2023-05-07T02:53:58.722Z,98.83
2023-05-07T02:54:58.751Z,98.77
2023-05-07T02:55:58.673Z,98.83
2023-05-07T02:56:58.647Z,98.83
2023-05-07T02:57:58.639Z,98.83
2023-05-07T02:58:58.658Z,98.83
2023-05-07T02:59:58.630Z,98.83
2023-05-07T03:00:58.726Z,98.83
2023-05-07T03:01:58.624Z,98.73
2023-05-07T03:02:58.607Z,98.73
2023-05-07T03:03:58.683Z,98.73
2023-05-07T03:04:58.559Z,98.77
2023-05-07T03:05:58.556Z,98.77
2023-05-07T03:06:58.537Z,98.73
2023-05-07T03:07:58.531Z,98.77
2023-05-07T03:08:58.514Z,98.77
2023-05-07T03:09:58.545Z,98.77
2023-05-07T03:10:58.493Z,98.68
2023-05-07T03:11:58.489Z,98.77
2023-05-07T03:12:58.512Z,98.77
2023-05-07T03:13:58.482Z,98.68
2023-05-07T03:14:58.476Z,98.77
2023-05-07T03:15:58.505Z,98.68
2023-05-07T03:16:58.468Z,98.77
2023-05-07T03:17:58.478Z,98.77
2023-05-07T03:18:58.477Z,98.77
2023-05-07T03:19:58.403Z,98.77
2023-05-07T03:20:58.427Z,98.77
2023-05-07T03:21:58.377Z,98.77
2023-05-07T03:22:58.398Z,98.77
2023-05-07T03:23:58.353Z,98.77
2023-05-07T03:24:58.368Z,98.77
2023-05-07T03:25:58.330Z,98.77
2023-05-07T03:26:58.316Z,98.77
2023-05-07T03:27:58.331Z,98.77
2023-05-07T03:28:58.333Z,98.77
2023-05-07T03:29:58.284Z,98.77
2023-05-07T03:30:58.336Z,98.77
2023-05-07T03:31:58.357Z,98.77
2023-05-07T03:32:58.304Z,98.68
2023-05-07T03:33:58.294Z,98.77
2023-05-07T03:34:58.257Z,98.68
2023-05-07T03:35:58.215Z,98.68
2023-05-07T03:36:58.218Z,98.68
2023-05-07T03:37:58.197Z,98.68
2023-05-07T03:38:58.237Z,98.68
2023-05-07T03:39:58.180Z,98.68
2023-05-07T03:40:58.155Z,98.68
2023-05-07T03:41:58.154Z,98.68
2023-05-07T03:42:58.139Z,98.68
2023-05-07T03:43:58.179Z,98.68
2023-05-07T03:44:58.161Z,98.68
2023-05-07T03:45:58.134Z,98.68
2023-05-07T03:46:58.098Z,98.68
2023-05-07T03:47:58.146Z,98.68
2023-05-07T03:48:58.064Z,98.68
2023-05-07T03:49:58.097Z,98.68
2023-05-07T03:50:58.042Z,98.68
2023-05-07T03:51:58.039Z,98.68
2023-05-07T03:52:58.035Z,98.68
2023-05-07T03:53:58.045Z,98.57
2023-05-07T03:54:58.021Z,98.57
2023-05-07T03:55:58.012Z,98.68
2023-05-07T03:56:57.997Z,98.68
2023-05-07T03:57:57.969Z,98.57
2023-05-07T03:58:58.025Z,98.57
2023-05-07T03:59:57.956Z,98.57
2023-05-07T04:00:57.952Z,98.68
2023-05-07T04:01:57.960Z,98.57
2023-05-07T04:02:57.996Z,98.57
2023-05-07T04:03:57.993Z,98.57
2023-05-07T04:04:57.924Z,98.57
2023-05-07T04:05:57.885Z,98.57
2023-05-07T04:06:57.887Z,98.57
2023-05-07T04:07:57.862Z,98.57
2023-05-07T04:08:57.858Z,98.57
2023-05-07T04:09:57.879Z,98.57
2023-05-07T04:10:57.855Z,98.68
2023-05-07T04:11:57.842Z,98.68
2023-05-07T04:12:57.871Z,98.77
2023-05-07T04:13:57.803Z,98.77
2023-05-07T04:14:57.785Z,98.77
2023-05-07T04:15:57.821Z,98.88
2023-05-07T04:16:57.888Z,98.88
2023-05-07T04:17:57.799Z,98.88
2023-05-07T04:18:57.783Z,98.88
2023-05-07T04:19:57.734Z,98.88
2023-05-07T04:20:57.721Z,98.88
2023-05-07T04:21:57.758Z,98.77
2023-05-07T04:22:57.715Z,98.77
2023-05-07T04:23:57.682Z,98.77
2023-05-07T04:24:57.716Z,98.77
2023-05-07T04:25:57.692Z,98.77
2023-05-07T04:26:57.668Z,98.77
2023-05-07T04:27:58.177Z,98.77
2023-05-07T04:28:57.662Z,98.77
2023-05-07T04:29:57.673Z,98.77
2023-05-07T04:30:57.615Z,98.77
2023-05-07T04:31:57.688Z,98.68
2023-05-07T04:32:57.673Z,98.68
2023-05-07T04:33:57.613Z,98.68
2023-05-07T04:34:57.598Z,98.68
2023-05-07T04:35:57.578Z,98.68
2023-05-07T04:36:57.552Z,98.57
2023-05-07T04:37:57.550Z,98.57
2023-05-07T04:38:57.538Z,98.47
2023-05-07T04:39:57.509Z,98.47
2023-05-07T04:40:59.243Z,98.37
2023-05-07T04:41:57.492Z,98.37
2023-05-07T04:42:57.477Z,98.27
2023-05-07T04:43:57.471Z,98.16
2023-05-07T04:44:57.462Z,98.16
2023-05-07T04:45:57.468Z,98.16
2023-05-07T04:46:57.486Z,98.07
2023-05-07T04:47:57.440Z,98.07
2023-05-07T04:48:57.416Z,98.07
2023-05-07T04:49:57.404Z,97.96
2023-05-07T04:50:57.484Z,97.96
2023-05-07T04:51:57.378Z,97.96
2023-05-07T04:52:57.442Z,97.81
2023-05-07T04:53:57.351Z,97.92
2023-05-07T04:54:57.347Z,97.81
2023-05-07T04:55:57.346Z,97.81
2023-05-07T04:56:57.372Z,97.71
2023-05-07T04:57:57.320Z,97.71
2023-05-07T04:58:57.315Z,97.61
2023-05-07T04:59:57.292Z,97.61
2023-05-07T05:00:57.316Z,97.61
2023-05-07T05:01:57.427Z,97.61
2023-05-07T05:02:57.410Z,97.51
2023-05-07T05:03:57.339Z,97.41
2023-05-07T05:04:57.276Z,97.41
2023-05-07T05:05:57.243Z,97.41
2023-05-07T05:06:57.232Z,97.41
2023-05-07T05:07:57.244Z,97.41
2023-05-07T05:08:57.243Z,97.31
2023-05-07T05:09:57.187Z,97.31
2023-05-07T05:10:57.185Z,97.31
2023-05-07T05:11:57.196Z,97.41
2023-05-07T05:12:57.188Z,97.41
2023-05-07T05:13:57.145Z,97.41
2023-05-07T05:14:57.133Z,97.31
2023-05-07T05:15:57.164Z,97.31
2023-05-07T05:16:57.149Z,97.31
2023-05-07T05:17:57.108Z,97.31
2023-05-07T05:18:57.088Z,97.20
2023-05-07T05:19:57.126Z,97.20
2023-05-07T05:20:57.069Z,97.20
2023-05-07T05:21:57.073Z,97.20
2023-05-07T05:22:57.051Z,97.20
2023-05-07T05:23:57.031Z,97.20
2023-05-07T05:24:57.040Z,97.20
2023-05-07T05:25:57.085Z,97.20
2023-05-07T05:26:57.001Z,97.20
2023-05-07T05:27:56.993Z,97.20
2023-05-07T05:28:57.004Z,97.31
2023-05-07T05:29:56.969Z,97.31
2023-05-07T05:30:56.953Z,97.20
2023-05-07T05:31:57.099Z,97.20
2023-05-07T05:32:56.972Z,97.20
2023-05-07T05:33:56.925Z,97.20
2023-05-07T05:34:57.317Z,97.11
2023-05-07T05:35:56.935Z,97.11
2023-05-07T05:36:56.935Z,97.00
2023-05-07T05:37:56.879Z,97.00
2023-05-07T05:38:56.927Z,97.00
2023-05-07T05:39:56.858Z,97.00
2023-05-07T05:40:56.931Z,96.90
2023-05-07T05:41:56.828Z,96.90
2023-05-07T05:42:56.844Z,96.90
2023-05-07T05:43:56.824Z,96.90
2023-05-07T05:44:56.839Z,96.80
2023-05-07T05:45:56.835Z,96.80
2023-05-07T05:46:56.942Z,96.90
2023-05-07T05:47:56.832Z,96.90
2023-05-07T05:48:56.794Z,96.75
2023-05-07T05:49:56.745Z,96.75
2023-05-07T05:50:56.740Z,96.75
2023-05-07T05:51:56.730Z,96.75
2023-05-07T05:52:56.720Z,96.75
2023-05-07T05:53:56.705Z,96.75
2023-05-07T05:54:56.798Z,96.75
2023-05-07T05:55:56.750Z,96.66
2023-05-07T05:56:56.674Z,96.66
2023-05-07T05:57:56.732Z,96.66
2023-05-07T05:58:56.789Z,96.75
2023-05-07T05:59:56.644Z,96.75
2023-05-07T06:00:56.628Z,96.66
2023-05-07T06:01:56.776Z,96.66
2023-05-07T06:02:56.666Z,96.55
2023-05-07T06:03:56.611Z,96.55
2023-05-07T06:04:56.635Z,96.41
2023-05-07T06:05:56.572Z,96.41
2023-05-07T06:06:56.568Z,96.41
2023-05-07T06:07:56.622Z,96.30
2023-05-07T06:08:56.544Z,96.20
2023-05-07T06:09:56.528Z,96.20
2023-05-07T06:10:56.570Z,96.30
2023-05-07T06:11:57.979Z,96.30
2023-05-07T06:12:56.621Z,96.41
2023-05-07T06:13:56.487Z,96.15
2023-05-07T06:14:56.558Z,95.95
2023-05-07T06:15:56.472Z,95.75
2023-05-07T06:16:58.073Z,95.55
2023-05-07T06:17:56.544Z,95.35
2023-05-07T06:18:56.432Z,95.14
2023-05-07T06:19:56.422Z,95.14
2023-05-07T06:20:56.410Z,95.14
2023-05-07T06:21:56.444Z,95.14
2023-05-07T06:22:56.386Z,95.04
2023-05-07T06:23:56.372Z,95.00
2023-05-07T06:24:56.416Z,94.90
2023-05-07T06:25:56.363Z,94.70
2023-05-07T06:26:58.772Z,94.49
2023-05-07T06:27:56.362Z,94.49
2023-05-07T06:28:56.332Z,94.29
2023-05-07T06:29:56.315Z,94.19
2023-05-07T06:30:56.307Z,93.88
2023-05-07T06:31:56.313Z,93.68
2023-05-07T06:32:56.363Z,93.48
2023-05-07T06:33:56.268Z,93.18
2023-05-07T06:34:56.265Z,93.27
2023-05-07T06:35:56.244Z,93.38
2023-05-07T06:36:56.282Z,93.38
2023-05-07T06:37:56.229Z,93.38
2023-05-07T06:38:56.232Z,93.38
2023-05-07T06:39:57.568Z,93.33
2023-05-07T06:40:56.306Z,93.33
2023-05-07T06:41:56.206Z,93.33
2023-05-07T06:42:56.194Z,93.23
2023-05-07T06:43:56.757Z,93.13
2023-05-07T06:44:56.147Z,93.03
2023-05-07T06:45:56.203Z,92.93
2023-05-07T06:46:56.191Z,92.83
2023-05-07T06:47:56.182Z,92.83
2023-05-07T06:48:56.121Z,92.72
2023-05-07T06:49:56.098Z,92.63
2023-05-07T06:50:56.090Z,92.63
2023-05-07T06:51:56.074Z,92.63
2023-05-07T06:52:56.065Z,92.52
2023-05-07T06:53:56.088Z,92.42
2023-05-07T06:54:56.459Z,92.42
2023-05-07T06:55:56.067Z,92.63
2023-05-07T06:56:56.021Z,92.63
2023-05-07T06:57:56.005Z,92.48
2023-05-07T06:58:56.042Z,92.48
2023-05-07T06:59:55.972Z,92.38
2023-05-07T07:00:55.980Z,92.18
2023-05-07T07:01:56.052Z,91.92
2023-05-07T07:02:56.058Z,91.97
2023-05-07T07:03:55.942Z,91.97
2023-05-07T07:04:56.052Z,92.08
2023-05-07T07:05:55.929Z,92.18
2023-05-07T07:06:55.922Z,92.28
2023-05-07T07:07:55.905Z,92.18
2023-05-07T07:08:55.901Z,91.97
2023-05-07T07:09:55.911Z,91.77
2023-05-07T07:10:55.872Z,91.47
2023-05-07T07:11:55.845Z,91.16
2023-05-07T07:12:55.890Z,91.16
2023-05-07T07:13:55.848Z,91.16
2023-05-07T07:14:55.841Z,91.27
2023-05-07T07:15:55.859Z,91.37
2023-05-07T07:16:55.801Z,91.37
2023-05-07T07:17:55.857Z,90.96
2023-05-07T07:18:55.786Z,90.76
2023-05-07T07:19:55.862Z,90.66
2023-05-07T07:20:55.756Z,90.66
2023-05-07T07:21:55.756Z,90.62
2023-05-07T07:22:55.756Z,90.52
2023-05-07T07:23:55.754Z,90.31
2023-05-07T07:24:55.746Z,90.21
2023-05-07T07:25:55.773Z,90.31
2023-05-07T07:26:55.729Z,90.11
2023-05-07T07:27:55.688Z,89.91
2023-05-07T07:28:55.656Z,89.91
2023-05-07T07:29:55.673Z,89.81
2023-05-07T07:30:55.675Z,90.01
2023-05-07T07:31:55.861Z,90.01
2023-05-07T07:32:55.727Z,89.91
2023-05-07T07:33:55.608Z,89.91
2023-05-07T07:34:55.613Z,89.91
2023-05-07T07:35:55.594Z,89.70
2023-05-07T07:36:55.578Z,89.65
2023-05-07T07:37:55.562Z,89.75
2023-05-07T07:38:55.610Z,89.81
2023-05-07T07:39:55.544Z,89.95
2023-05-07T07:40:55.544Z,90.01
2023-05-07T07:41:55.522Z,89.91
2023-05-07T07:42:55.570Z,89.91
2023-05-07T07:43:55.500Z,89.70
2023-05-07T07:44:55.525Z,89.70
2023-05-07T07:45:55.542Z,89.70
2023-05-07T07:46:55.560Z,89.81
2023-05-07T07:47:55.481Z,89.76
2023-05-07T07:48:55.487Z,89.56
2023-05-07T07:49:57.894Z,89.26
2023-05-07T07:50:55.433Z,89.06
2023-05-07T07:51:55.424Z,88.85
2023-05-07T07:52:55.406Z,88.55
2023-05-07T07:53:55.401Z,88.35
2023-05-07T07:54:55.398Z,88.45
2023-05-07T07:55:59.324Z,88.45
2023-05-07T07:56:55.355Z,88.31
2023-05-07T07:57:55.349Z,88.10
2023-05-07T07:58:55.343Z,88.01
2023-05-07T08:00:00.545Z,87.81
2023-05-07T08:00:57.129Z,87.40
2023-05-07T08:01:55.735Z,87.10
2023-05-07T08:02:55.507Z,87.19
2023-05-07T08:03:55.448Z,87.19
2023-05-07T08:04:55.278Z,87.10
2023-05-07T08:05:55.265Z,87.19
2023-05-07T08:06:55.350Z,87.40
2023-05-07T08:07:55.243Z,87.50
2023-05-07T08:08:55.239Z,87.70
2023-05-07T08:09:55.216Z,87.90
2023-05-07T08:10:55.260Z,88.01
2023-05-07T08:11:55.283Z,87.66
2023-05-07T08:12:55.241Z,87.26
2023-05-07T08:13:55.181Z,87.15
2023-05-07T08:14:55.173Z,87.15
2023-05-07T08:15:55.268Z,86.95
2023-05-07T08:16:55.196Z,86.85
2023-05-07T08:17:55.206Z,86.95
2023-05-07T08:18:55.126Z,87.05
2023-05-07T08:19:55.128Z,87.15
2023-05-07T08:20:57.174Z,87.05
2023-05-07T08:21:55.154Z,86.85
2023-05-07T08:22:55.103Z,86.65
2023-05-07T08:23:55.106Z,86.55
2023-05-07T08:24:55.055Z,86.61
2023-05-07T08:25:55.050Z,86.71
2023-05-07T08:26:55.068Z,86.71
2023-05-07T08:27:55.033Z,86.30
2023-05-07T08:28:55.064Z,86.00
2023-05-07T08:29:55.037Z,86.00
2023-05-07T08:30:55.036Z,85.90
2023-05-07T08:31:55.021Z,85.80
2023-05-07T08:32:55.005Z,85.80
2023-05-07T08:33:55.012Z,85.90
2023-05-07T08:34:54.957Z,86.10
2023-05-07T08:35:54.990Z,86.10
2023-05-07T08:36:54.953Z,86.00
2023-05-07T08:37:55.011Z,86.10
2023-05-07T08:38:54.912Z,85.90
2023-05-07T08:39:55.024Z,86.00
2023-05-07T08:40:54.888Z,85.90
2023-05-07T08:41:54.885Z,85.50
2023-05-07T08:42:54.921Z,85.70
2023-05-07T08:43:54.884Z,85.90
2023-05-07T08:44:54.969Z,85.90
2023-05-07T08:45:54.927Z,85.80
2023-05-07T08:46:54.882Z,85.90
2023-05-07T08:47:54.884Z,86.10
2023-05-07T08:48:54.853Z,86.16
2023-05-07T08:49:54.788Z,86.16
2023-05-07T08:50:54.782Z,85.86
2023-05-07T08:51:54.832Z,85.56
2023-05-07T08:52:54.788Z,85.56
2023-05-07T08:53:54.831Z,85.56
2023-05-07T08:54:54.725Z,85.30
2023-05-07T08:55:54.730Z,85.40
2023-05-07T08:56:54.726Z,85.70
2023-05-07T08:57:54.708Z,85.96
2023-05-07T08:58:54.689Z,86.07
2023-05-07T08:59:54.792Z,86.07
2023-05-07T09:00:54.696Z,86.16
2023-05-07T09:01:54.726Z,86.16
2023-05-07T09:02:54.911Z,86.16
2023-05-07T09:03:54.659Z,86.27
2023-05-07T09:04:54.633Z,86.36
2023-05-07T09:05:54.616Z,86.36
2023-05-07T09:06:54.606Z,86.27
2023-05-07T09:07:54.795Z,85.92
2023-05-07T09:08:54.650Z,85.82
2023-05-07T09:09:54.573Z,85.62
2023-05-07T09:10:54.586Z,85.52
2023-05-07T09:11:54.548Z,85.42
2023-05-07T09:12:54.559Z,85.52
2023-05-07T09:13:54.534Z,85.62
2023-05-07T09:14:54.561Z,85.72
2023-05-07T09:15:54.598Z,85.62
2023-05-07T09:16:54.502Z,85.78
2023-05-07T09:17:54.549Z,85.88
2023-05-07T09:18:54.470Z,85.58
2023-05-07T09:19:54.483Z,85.17
2023-05-07T09:20:54.570Z,85.08
2023-05-07T09:21:54.437Z,84.97
2023-05-07T09:22:54.426Z,85.17
2023-05-07T09:23:54.412Z,85.28
2023-05-07T09:24:54.552Z,85.38
2023-05-07T09:25:54.394Z,84.97
2023-05-07T09:26:54.428Z,84.97
2023-05-07T09:27:54.378Z,84.88
2023-05-07T09:28:54.365Z,84.97
2023-05-07T09:29:54.355Z,84.97
2023-05-07T09:30:54.341Z,84.77
2023-05-07T09:31:54.349Z,84.67
2023-05-07T09:32:54.891Z,84.57
2023-05-07T09:33:54.337Z,84.67
2023-05-07T09:34:54.329Z,84.88
2023-05-07T09:35:54.316Z,84.77
2023-05-07T09:36:54.261Z,84.83
2023-05-07T09:37:54.296Z,85.03
2023-05-07T09:38:54.250Z,84.74
2023-05-07T09:39:54.281Z,84.13
2023-05-07T09:40:54.226Z,84.03
2023-05-07T09:41:54.223Z,83.83
2023-05-07T09:42:54.233Z,83.62
2023-05-07T09:43:54.235Z,83.18
2023-05-07T09:44:54.213Z,83.08
2023-05-07T09:45:54.218Z,82.78
2023-05-07T09:46:54.208Z,82.58
2023-05-07T09:47:54.233Z,82.48
2023-05-07T09:48:54.142Z,82.68
2023-05-07T09:49:54.133Z,82.58
2023-05-07T09:50:54.168Z,82.58
2023-05-07T09:51:54.112Z,81.73
2023-05-07T09:52:54.099Z,81.03
2023-05-07T09:53:54.088Z,80.83
2023-05-07T09:54:54.089Z,81.13
2023-05-07T09:55:54.206Z,81.03
2023-05-07T09:56:54.082Z,80.52
2023-05-07T09:57:54.056Z,80.63
2023-05-07T09:58:54.037Z,80.83
2023-05-07T09:59:54.032Z,80.63
2023-05-07T10:00:58.404Z,80.43
2023-05-07T10:01:54.051Z,79.99
2023-05-07T10:02:54.143Z,79.99
2023-05-07T10:03:54.190Z,80.29
2023-05-07T10:04:54.019Z,80.58
2023-05-07T10:05:53.968Z,80.08
2023-05-07T10:06:53.948Z,79.48
2023-05-07T10:07:53.957Z,79.38
2023-05-07T10:08:53.926Z,78.78
2023-05-07T10:09:54.029Z,79.08
2023-05-07T10:10:54.074Z,79.38
2023-05-07T10:11:53.942Z,79.48
2023-05-07T10:12:54.037Z,79.68
2023-05-07T10:13:53.888Z,79.88
2023-05-07T10:14:53.867Z,80.08
2023-05-07T10:15:53.878Z,80.49
2023-05-07T10:16:53.893Z,80.19
2023-05-07T10:17:53.941Z,80.08
2023-05-07T10:18:53.881Z,79.48
2023-05-07T10:19:53.813Z,79.28
2023-05-07T10:20:53.840Z,78.34
2023-05-07T10:21:53.787Z,77.53
2023-05-07T10:22:53.777Z,77.63
2023-05-07T10:23:53.914Z,77.94
2023-05-07T10:24:53.760Z,77.83
2023-05-07T10:26:00.417Z,77.90
2023-05-07T10:26:54.730Z,77.90
2023-05-07T10:27:53.732Z,78.20
2023-05-07T10:28:53.703Z,78.06
2023-05-07T10:29:53.705Z,76.15
2023-05-07T10:30:53.849Z,75.55
2023-05-07T10:31:53.721Z,75.75
2023-05-07T10:32:53.708Z,76.35
2023-05-07T10:33:53.707Z,76.25
2023-05-07T10:34:53.655Z,75.85
2023-05-07T10:35:53.650Z,75.55
2023-05-07T10:36:53.645Z,75.05
2023-05-07T10:37:53.636Z,75.01
2023-05-07T10:38:53.605Z,75.42
2023-05-07T10:39:53.686Z,75.42
2023-05-07T10:40:53.595Z,75.42
2023-05-07T10:41:53.572Z,75.21
2023-05-07T10:42:53.566Z,75.42
2023-05-07T10:43:56.047Z,75.62
2023-05-07T10:44:53.532Z,75.78
2023-05-07T10:45:53.543Z,75.18
2023-05-07T10:46:53.542Z,74.77
2023-05-07T10:47:53.545Z,74.57
2023-05-07T10:48:53.574Z,74.37
2023-05-07T10:49:53.494Z,73.67
2023-05-07T10:50:53.538Z,73.97
2023-05-07T10:51:53.468Z,73.77
2023-05-07T10:52:53.473Z,73.57
2023-05-07T10:53:56.154Z,72.77
2023-05-07T10:54:53.434Z,73.07
2023-05-07T10:55:53.432Z,72.97
2023-05-07T10:56:53.408Z,72.87
2023-05-07T10:57:53.438Z,72.97
2023-05-07T10:58:53.436Z,73.07
2023-05-07T10:59:53.384Z,72.56
2023-05-07T11:00:53.398Z,71.97
2023-05-07T11:01:53.413Z,70.66
2023-05-07T11:02:53.352Z,70.36
2023-05-07T11:03:53.372Z,70.06
2023-05-07T11:04:53.368Z,70.73
2023-05-07T11:05:53.388Z,71.43
2023-05-07T11:06:53.294Z,71.53
2023-05-07T11:07:53.319Z,70.53
2023-05-07T11:08:53.274Z,69.89
2023-05-07T11:09:53.363Z,70.32
2023-05-07T11:10:53.300Z,70.69
2023-05-07T11:11:53.277Z,71.00
2023-05-07T11:12:53.275Z,71.30
2023-05-07T11:13:53.270Z,71.30
2023-05-07T11:14:53.208Z,70.89
2023-05-07T11:15:53.358Z,70.50
2023-05-07T11:16:53.179Z,70.69
2023-05-07T11:17:53.238Z,71.20
2023-05-07T11:18:53.171Z,71.20
2023-05-07T11:19:53.203Z,71.80
2023-05-07T11:20:53.390Z,71.30
2023-05-07T11:21:53.133Z,71.09
2023-05-07T11:22:54.660Z,71.20
2023-05-07T11:23:53.113Z,70.69
2023-05-07T11:24:53.103Z,70.09
2023-05-07T11:25:53.088Z,70.50
2023-05-07T11:26:57.506Z,70.59
2023-05-07T11:27:53.065Z,70.86
2023-05-07T11:28:53.100Z,71.06
2023-05-07T11:29:53.041Z,70.96
2023-05-07T11:30:53.031Z,71.06
2023-05-07T11:31:53.218Z,70.96
2023-05-07T11:32:53.028Z,70.96
2023-05-07T11:33:53.001Z,70.76
2023-05-07T11:34:52.986Z,70.36
2023-05-07T11:35:53.014Z,70.16
2023-05-07T11:36:52.982Z,70.26
2023-05-07T11:37:53.011Z,70.36
2023-05-07T11:38:54.901Z,69.56
2023-05-07T11:39:52.937Z,69.76
2023-05-07T11:40:55.386Z,70.23
2023-05-07T11:41:53.744Z,70.43
2023-05-07T11:42:52.894Z,70.73
2023-05-07T11:43:52.898Z,70.12
2023-05-07T11:44:52.888Z,69.53
2023-05-07T11:45:52.948Z,69.53
2023-05-07T11:46:52.854Z,69.42
2023-05-07T11:47:52.940Z,69.53
2023-05-07T11:48:52.832Z,70.03
2023-05-07T11:49:52.824Z,70.23
2023-05-07T11:50:52.815Z,70.43
2023-05-07T11:51:52.831Z,68.73
2023-05-07T11:52:52.804Z,68.62
2023-05-07T11:53:55.065Z,69.42
2023-05-07T11:54:52.767Z,70.12
2023-05-07T11:55:52.763Z,70.12
2023-05-07T11:56:52.743Z,70.32
2023-05-07T11:57:52.735Z,70.19
2023-05-07T11:58:52.726Z,70.29
2023-05-07T11:59:55.113Z,69.79
2023-05-07T12:00:52.739Z,69.59
2023-05-07T12:01:52.760Z,69.89
2023-05-07T12:02:52.928Z,69.99
2023-05-07T12:03:52.848Z,68.55
2023-05-07T12:04:52.722Z,68.26
2023-05-07T12:05:52.751Z,68.86
2023-05-07T12:06:52.667Z,68.16
2023-05-07T12:07:52.661Z,67.66
2023-05-07T12:08:52.638Z,67.76
2023-05-07T12:09:52.614Z,67.82
2023-05-07T12:10:52.611Z,67.82
2023-05-07T12:11:52.648Z,67.63
2023-05-07T12:12:52.600Z,68.13
2023-05-07T12:13:52.602Z,68.26
2023-05-07T12:14:52.547Z,68.26
2023-05-07T12:15:52.553Z,68.26
2023-05-07T12:16:52.603Z,68.26
2023-05-07T12:17:52.525Z,68.46
2023-05-07T12:18:52.531Z,68.96
2023-05-07T12:19:52.517Z,69.06
2023-05-07T12:20:52.487Z,68.86
2023-05-07T12:21:52.484Z,68.55
2023-05-07T12:22:52.487Z,68.02
2023-05-07T12:23:52.462Z,67.22
2023-05-07T12:24:52.489Z,67.02
2023-05-07T12:25:52.440Z,66.93
2023-05-07T12:26:52.442Z,67.32
2023-05-07T12:27:52.421Z,67.52
2023-05-07T12:28:52.529Z,67.63
2023-05-07T12:29:52.394Z,67.93
2023-05-07T12:30:52.381Z,68.32
2023-05-07T12:31:52.437Z,68.52
2023-05-07T12:32:52.419Z,68.43
2023-05-07T12:33:52.376Z,68.23
2023-05-07T12:34:52.334Z,67.02
2023-05-07T12:35:52.339Z,65.72
2023-05-07T12:36:52.318Z,65.52
2023-05-07T12:37:52.307Z,65.92
2023-05-07T12:38:52.353Z,66.02
2023-05-07T12:39:52.305Z,66.09
2023-05-07T12:40:54.593Z,66.09
2023-05-07T12:41:52.263Z,66.29
2023-05-07T12:42:52.328Z,65.99
2023-05-07T12:43:52.242Z,65.19
2023-05-07T12:44:52.238Z,65.49
2023-05-07T12:45:52.236Z,66.29
2023-05-07T12:46:52.318Z,66.49
2023-05-07T12:47:52.260Z,66.19
2023-05-07T12:48:52.192Z,65.86
2023-05-07T12:49:52.182Z,65.39
2023-05-07T12:50:52.173Z,65.39
2023-05-07T12:51:52.184Z,65.29